Climatempo

Climatempo Meteorologia

Obter
publicidade

Painel Meteorológico - destaques de 30/04/2015

30/04/2015 às 23:30
por Josélia Pegorim

Frio bate recorde em capitais do Sul e do Sudeste São Paulo teve a madrugada e a tarde mais fria. Porto Alegre, Rio de Janeiro e Curitiba tiveram a tarde mais fria de 2015. Leia mais Nova queda no nível do Sistema Cantareira Foi a segunda da semana. Entre os dias 27 e 28 o nível teve a primeira após 85 dias de estabilidade ou elevação Temperatura abaixo de 5°C Uma grande e forte massa de ar polar aumentou sua influência sobre o centro-sul do Brasil e esfriou mais o Sul. Temperaturas abaixo dos 5°C foram observadas.

Sensação térmica abaixo dos 10°C O vento moderado e constante de uma forte massa polar foi sentido no Sul e o Sudeste e aumentou a sensação de frio. Em São Paulo, a sensação térmica ficou abaixo dos 10°C. Leia mais Mais de 100 mm no Rio de Janeiro Choveu muito no Rio de Janeiro na madrugada e em parte  da manhã de 30 de abril. Não houve raios. A região de Copacabana recebeu mais de 100 mm de chuva em menos de 24 horas.   Muita chuva no litoral de SP Forte infiltração de ar marítimo acentuou a chuva. Leia mais Frente fria na Bahia Nova frente fria atingiu o sul da Bahia aumentando a chuva. Guanambi registrou o maior acumulado de chuva em 24 horas no país. Choveu forte sobre a região do aeroporto de Salvador no começo da noite. Volumes de chuva acima dos 100 mm foram registrados nos Estados da Bahia e do Rio de Janeiro.

Mais de 40 mm em 1 hora Fortes pancadas de chuva ocorreram em áreas do Norte, Nordeste e Sudeste. Alguns acumulados de chuva superaram os 40 mm em 1 hora em alguns locais.

Calor O ar continua quente sobre o Norte e Nordeste que registraram as mais altas temperaturas do país em 30 de abril de 2015.

 

Calbuco O vulcão Calbuco, que teve forte erupção no dia 22 de abril de 2015, voltou a ter um aumento de atividade. Os aeroportos de Bariloche e de Neuquén, na Argentina voltaram a registrar o fenômeno. SAZS 301400Z 00000KT 9999 VCVA NSC 05/M04 Q1019 RERMK VA LEVEL SFC CONCENTRATION 0/000025GRAMS/ CUBIC METER SAZS 301300Z 00000KT 9999 VCVA NSC 05/01 Q1020 RMK VA LEVEL SFC CONCENTRATION 0,000005 GRAMS/ CUBIC METER SAZS 301200Z 25003KT 9999 VCVA NSC 05/01 Q1019 SAZN 302200Z 02005KT 7000 NSC FU VA 18/12 Q1014 SAZN 302100Z 00000KT 5000 NSC FU VA 20/13 Q1013